Time;durP1;ratioP1;P1;durP2;ratioP2;P2;SDS_P1;SDS_P2;PMS_P1;PMS_P2;Temp;Humidity;BMP_temperature;BMP_pressure;BME280_temperature;BME280_humidity;BME280_pressure;Samples;Min_cycle;Max_cycle;Signal;HPM_P1;HPM_P2
2022/01/05 00:00:29;;;;;;;15.30;8.80;;;;;;;;;;5070308;28;20029;-69
2022/01/05 00:02:54;;;;;;;18.35;8.60;;;;;;;;;;5070173;28;20025;-69
2022/01/05 00:05:20;;;;;;;14.77;9.32;;;;;;;;;;5070409;28;20036;-69
2022/01/05 00:07:45;;;;;;;19.23;10.00;;;;;;;;;;5070183;28;20035;-69
2022/01/05 00:10:11;;;;;;;18.15;9.93;;;;;;;;;;5070024;28;20024;-69
2022/01/05 00:12:37;;;;;;;16.35;10.38;;;;;;;;;;5070154;28;20052;-69
2022/01/05 00:15:04;;;;;;;21.10;11.10;;;;;;;;;;5069927;28;20060;-69
2022/01/05 00:17:29;;;;;;;21.75;11.00;;;;;;;;;;5070070;28;20021;-69
2022/01/05 00:19:55;;;;;;;20.15;10.88;;;;;;;;;;5069884;28;20066;-69
2022/01/05 00:22:21;;;;;;;21.92;11.70;;;;;;;;;;5069876;28;20028;-69
2022/01/05 00:24:46;;;;;;;21.77;11.25;;;;;;;;;;5069866;28;20476;-69
2022/01/05 00:27:12;;;;;;;18.67;10.65;;;;;;;;;;5069734;28;20527;-69
2022/01/05 00:29:37;;;;;;;21.50;11.05;;;;;;;;;;5069536;28;20028;-70
2022/01/05 00:32:03;;;;;;;18.80;10.82;;;;;;;;;;5069869;28;20021;-70
2022/01/05 00:34:29;;;;;;;19.48;11.45;;;;;;;;;;5069926;28;20036;-69
2022/01/05 00:36:54;;;;;;;19.10;11.10;;;;;;;;;;5069884;28;20044;-70
2022/01/05 00:39:20;;;;;;;19.52;11.50;;;;;;;;;;5069564;28;20028;-69
2022/01/05 00:41:45;;;;;;;20.30;11.00;;;;;;;;;;5069803;28;20423;-69
2022/01/05 00:44:10;;;;;;;21.30;11.52;;;;;;;;;;5073692;28;20482;-69
2022/01/05 00:46:36;;;;;;;19.88;11.95;;;;;;;;;;5073890;28;20024;-70
2022/01/05 00:49:01;;;;;;;24.25;12.98;;;;;;;;;;5073621;28;20468;-69
2022/01/05 00:51:27;;;;;;;21.80;13.30;;;;;;;;;;5055859;28;20119;-69
2022/01/05 00:53:52;;;;;;;22.70;13.00;;;;;;;;;;5073724;28;20052;-69
2022/01/05 00:56:18;;;;;;;21.75;12.20;;;;;;;;;;5073683;28;20195;-69
2022/01/05 00:58:43;;;;;;;22.17;12.77;;;;;;;;;;5073210;28;20082;-69
2022/01/05 01:01:09;;;;;;;25.20;13.48;;;;;;;;;;5073700;28;20024;-69
2022/01/05 01:03:34;;;;;;;21.60;12.35;;;;;;;;;;5073677;28;20398;-69
2022/01/05 01:06:00;;;;;;;23.65;13.20;;;;;;;;;;5073459;28;20028;-69
2022/01/05 01:08:26;;;;;;;21.00;12.65;;;;;;;;;;5073198;28;20121;-69
2022/01/05 01:10:52;;;;;;;21.45;12.82;;;;;;;;;;5073577;28;20024;-69
2022/01/05 01:13:18;;;;;;;23.20;12.35;;;;;;;;;;5072987;28;20029;-69
2022/01/05 01:15:45;;;;;;;22.95;12.95;;;;;;;;;;5073144;28;20115;-69
2022/01/05 01:18:11;;;;;;;20.65;11.23;;;;;;;;;;5073206;28;20028;-69
2022/01/05 01:20:36;;;;;;;20.35;11.57;;;;;;;;;;5072883;28;20054;-69
2022/01/05 01:23:02;;;;;;;19.42;11.43;;;;;;;;;;5073062;28;20104;-69
2022/01/05 01:25:28;;;;;;;19.42;10.93;;;;;;;;;;5072851;28;20032;-69
2022/01/05 01:27:53;;;;;;;21.42;10.35;;;;;;;;;;5072880;28;20052;-69
2022/01/05 01:30:18;;;;;;;18.88;10.48;;;;;;;;;;5054946;28;20093;-69
2022/01/05 01:32:44;;;;;;;17.48;10.02;;;;;;;;;;5072815;28;20033;-69
2022/01/05 01:35:10;;;;;;;19.77;10.38;;;;;;;;;;5072902;28;20427;-69
2022/01/05 01:37:35;;;;;;;16.42;10.40;;;;;;;;;;5072069;28;20051;-69
2022/01/05 01:40:01;;;;;;;19.83;10.93;;;;;;;;;;5071472;28;20115;-69
2022/01/05 01:42:27;;;;;;;21.05;11.52;;;;;;;;;;5071679;28;20035;-69
2022/01/05 01:44:52;;;;;;;19.67;11.43;;;;;;;;;;5071367;28;20090;-69
2022/01/05 01:47:17;;;;;;;19.90;10.93;;;;;;;;;;5071520;28;20107;-69
2022/01/05 01:49:43;;;;;;;19.33;10.55;;;;;;;;;;5071277;28;20023;-69
2022/01/05 01:52:08;;;;;;;21.45;10.48;;;;;;;;;;5071515;28;20017;-69
2022/01/05 01:54:35;;;;;;;17.58;10.43;;;;;;;;;;5071462;28;20361;-69
2022/01/05 01:57:01;;;;;;;21.33;11.88;;;;;;;;;;5071418;28;20052;-69
2022/01/05 01:59:27;;;;;;;20.30;12.52;;;;;;;;;;5070952;28;20056;-69
2022/01/05 02:01:56;;;;;;;20.85;11.20;;;;;;;;;;5071442;28;20030;-69
2022/01/05 02:04:22;;;;;;;20.60;11.48;;;;;;;;;;5071648;28;20108;-69
2022/01/05 02:06:48;;;;;;;18.20;10.35;;;;;;;;;;5071189;28;20040;-69
2022/01/05 02:09:14;;;;;;;17.15;11.00;;;;;;;;;;5070705;28;20021;-69
2022/01/05 02:11:39;;;;;;;19.30;10.52;;;;;;;;;;5071105;28;20047;-69
2022/01/05 02:14:06;;;;;;;18.05;10.60;;;;;;;;;;5071096;28;20025;-69
2022/01/05 02:16:34;;;;;;;18.15;10.13;;;;;;;;;;5070928;28;20040;-69
2022/01/05 02:19:00;;;;;;;17.90;10.02;;;;;;;;;;5070897;28;20048;-69
2022/01/05 02:21:32;;;;;;;18.52;10.38;;;;;;;;;;5071522;28;20264;-69
2022/01/05 02:23:58;;;;;;;17.98;10.02;;;;;;;;;;5070819;28;20103;-69
2022/01/05 02:26:23;;;;;;;19.30;10.20;;;;;;;;;;5070961;28;20059;-69
2022/01/05 02:28:49;;;;;;;16.95;9.60;;;;;;;;;;5070774;28;20055;-71
2022/01/05 02:31:15;;;;;;;22.17;10.10;;;;;;;;;;5070923;28;20053;-69
2022/01/05 02:33:41;;;;;;;18.48;9.73;;;;;;;;;;5070876;28;20055;-69
2022/01/05 02:36:07;;;;;;;16.23;9.57;;;;;;;;;;5070762;28;20509;-69
2022/01/05 02:38:32;;;;;;;16.50;9.68;;;;;;;;;;5028140;28;1234897;-69
2022/01/05 02:41:06;;;;;;;16.33;9.43;;;;;;;;;;5071519;28;20037;-69
2022/01/05 02:43:31;;;;;;;15.20;10.13;;;;;;;;;;5071479;28;20020;-69
2022/01/05 02:45:57;;;;;;;19.60;10.70;;;;;;;;;;5071480;28;20032;-69
2022/01/05 02:48:22;;;;;;;16.33;10.48;;;;;;;;;;5071588;28;20266;-69
2022/01/05 02:50:47;;;;;;;15.52;9.45;;;;;;;;;;5071382;28;20028;-69
2022/01/05 02:53:13;;;;;;;13.73;9.18;;;;;;;;;;5071436;28;20031;-69
2022/01/05 02:55:38;;;;;;;18.58;9.60;;;;;;;;;;5071413;28;20496;-69
2022/01/05 02:58:04;;;;;;;15.15;8.75;;;;;;;;;;5071282;28;20476;-69
2022/01/05 03:00:29;;;;;;;14.38;8.73;;;;;;;;;;5071159;28;20040;-69
2022/01/05 03:02:55;;;;;;;13.13;7.90;;;;;;;;;;5071623;28;20111;-69
2022/01/05 03:05:20;;;;;;;13.88;7.78;;;;;;;;;;5070173;28;20085;-69
2022/01/05 03:07:46;;;;;;;14.55;8.07;;;;;;;;;;5071050;28;20021;-69
2022/01/05 03:10:13;;;;;;;13.70;7.63;;;;;;;;;;5070911;28;20037;-69
2022/01/05 03:12:41;;;;;;;13.45;8.02;;;;;;;;;;5070992;28;20453;-69
2022/01/05 03:15:08;;;;;;;14.65;9.13;;;;;;;;;;5070909;28;20028;-69
2022/01/05 03:17:33;;;;;;;14.90;9.10;;;;;;;;;;5070884;28;20024;-69
2022/01/05 03:19:59;;;;;;;18.10;10.18;;;;;;;;;;5070710;28;20027;-69
2022/01/05 03:22:24;;;;;;;20.02;10.27;;;;;;;;;;5070829;28;20012;-69
2022/01/05 03:24:49;;;;;;;18.65;11.07;;;;;;;;;;5070668;28;20465;-69
2022/01/05 03:27:15;;;;;;;19.67;10.98;;;;;;;;;;5071004;28;20032;-69
2022/01/05 03:29:40;;;;;;;24.55;11.32;;;;;;;;;;5070497;28;20503;-70
2022/01/05 03:32:06;;;;;;;18.50;11.38;;;;;;;;;;5070454;28;20116;-70
2022/01/05 03:34:32;;;;;;;20.75;11.20;;;;;;;;;;5052588;28;20526;-69
2022/01/05 03:36:59;;;;;;;19.85;10.90;;;;;;;;;;5070403;28;20507;-69
2022/01/05 03:39:25;;;;;;;19.00;10.15;;;;;;;;;;5070536;28;20558;-70
2022/01/05 03:41:51;;;;;;;21.08;11.10;;;;;;;;;;5070654;28;20044;-69
2022/01/05 03:44:16;;;;;;;18.75;10.23;;;;;;;;;;5070361;28;20377;-69
2022/01/05 03:46:42;;;;;;;18.77;10.80;;;;;;;;;;5070461;28;20024;-69
2022/01/05 03:49:07;;;;;;;19.02;10.38;;;;;;;;;;5070364;28;20047;-69
2022/01/05 03:51:33;;;;;;;18.67;10.52;;;;;;;;;;5070322;28;20020;-69
2022/01/05 03:53:58;;;;;;;17.83;10.10;;;;;;;;;;5070377;28;20029;-69
2022/01/05 03:56:24;;;;;;;16.95;9.95;;;;;;;;;;5070313;28;20495;-69
2022/01/05 03:58:49;;;;;;;16.15;9.77;;;;;;;;;;5070226;28;20039;-69
2022/01/05 04:01:15;;;;;;;18.27;10.02;;;;;;;;;;5070254;28;20027;-69
2022/01/05 04:03:40;;;;;;;17.25;9.88;;;;;;;;;;5070267;28;20389;-69
2022/01/05 04:06:06;;;;;;;18.35;10.00;;;;;;;;;;5070338;28;20033;-69
2022/01/05 04:08:32;;;;;;;19.15;10.75;;;;;;;;;;5070256;28;20207;-69
2022/01/05 04:10:57;;;;;;;20.95;10.82;;;;;;;;;;5070163;28;20025;-69
2022/01/05 04:13:23;;;;;;;17.67;10.30;;;;;;;;;;5070127;28;20031;-69
2022/01/05 04:15:48;;;;;;;17.92;10.05;;;;;;;;;;5070017;28;20035;-69
2022/01/05 04:18:14;;;;;;;17.67;10.00;;;;;;;;;;5069993;28;20028;-69
2022/01/05 04:20:39;;;;;;;19.15;10.40;;;;;;;;;;5070000;28;20021;-69
2022/01/05 04:23:05;;;;;;;15.82;9.30;;;;;;;;;;5069951;28;20503;-69
2022/01/05 04:25:32;;;;;;;14.45;9.43;;;;;;;;;;5070042;28;20232;-70
2022/01/05 04:28:02;;;;;;;18.00;9.90;;;;;;;;;;5069877;28;20073;-69
2022/01/05 04:30:27;;;;;;;15.98;10.00;;;;;;;;;;5069879;28;20488;-69
2022/01/05 04:32:53;;;;;;;16.92;9.75;;;;;;;;;;5069717;28;20028;-69
2022/01/05 04:35:18;;;;;;;19.35;10.63;;;;;;;;;;5069758;28;20024;-69
2022/01/05 04:37:43;;;;;;;17.13;10.07;;;;;;;;;;5069695;28;20410;-69
2022/01/05 04:40:11;;;;;;;19.52;9.57;;;;;;;;;;5069845;28;20395;-69
2022/01/05 04:42:37;;;;;;;16.48;9.50;;;;;;;;;;5069830;28;20028;-69
2022/01/05 04:45:03;;;;;;;18.10;10.15;;;;;;;;;;5069682;28;20088;-69
2022/01/05 04:47:28;;;;;;;18.70;9.75;;;;;;;;;;5069599;28;20017;-69
2022/01/05 04:49:54;;;;;;;16.55;9.45;;;;;;;;;;5069638;28;20387;-69
2022/01/05 04:52:19;;;;;;;16.55;9.05;;;;;;;;;;5069830;28;20020;-69
2022/01/05 04:54:46;;;;;;;18.13;8.52;;;;;;;;;;5069695;28;20028;-69
2022/01/05 04:57:15;;;;;;;16.77;8.32;;;;;;;;;;5069773;28;20034;-69
2022/01/05 04:59:41;;;;;;;15.88;8.25;;;;;;;;;;5069456;28;20028;-69
2022/01/05 05:02:06;;;;;;;20.15;8.90;;;;;;;;;;5069478;28;20361;-69
2022/01/05 05:04:32;;;;;;;16.88;8.57;;;;;;;;;;5069694;28;20025;-69
2022/01/05 05:06:57;;;;;;;16.25;8.05;;;;;;;;;;5069520;28;20027;-69
2022/01/05 05:09:23;;;;;;;15.00;8.60;;;;;;;;;;5069487;28;20071;-69
2022/01/05 05:11:50;;;;;;;20.25;9.93;;;;;;;;;;5069360;28;20086;-69
2022/01/05 05:14:15;;;;;;;17.75;8.77;;;;;;;;;;5069269;28;20024;-69
2022/01/05 05:16:41;;;;;;;15.35;8.27;;;;;;;;;;5069467;28;20025;-69
2022/01/05 05:19:06;;;;;;;16.80;9.43;;;;;;;;;;5069348;28;20099;-69
2022/01/05 05:21:32;;;;;;;21.55;11.30;;;;;;;;;;5069269;28;20033;-69
2022/01/05 05:23:57;;;;;;;20.40;10.88;;;;;;;;;;5069435;28;20067;-69
2022/01/05 05:26:22;;;;;;;22.83;10.73;;;;;;;;;;5069181;28;20502;-69
2022/01/05 05:28:48;;;;;;;16.52;9.85;;;;;;;;;;5070845;28;20039;-69
2022/01/05 05:31:13;;;;;;;17.67;9.88;;;;;;;;;;5072880;28;20036;-69
2022/01/05 05:33:39;;;;;;;21.38;10.07;;;;;;;;;;5072768;28;20468;-69
2022/01/05 05:36:04;;;;;;;19.42;10.00;;;;;;;;;;5072970;28;20036;-69
2022/01/05 05:38:30;;;;;;;19.17;10.75;;;;;;;;;;5072681;28;20036;-69
2022/01/05 05:40:55;;;;;;;18.52;10.73;;;;;;;;;;5072734;28;20108;-69
2022/01/05 05:43:21;;;;;;;18.88;10.93;;;;;;;;;;5072678;28;20020;-69
2022/01/05 05:45:46;;;;;;;22.02;12.05;;;;;;;;;;5072645;28;20504;-69
2022/01/05 05:48:12;;;;;;;22.05;11.35;;;;;;;;;;5072617;28;20024;-69
2022/01/05 05:50:38;;;;;;;22.50;11.93;;;;;;;;;;5072527;28;20020;-69
2022/01/05 05:53:04;;;;;;;20.67;11.63;;;;;;;;;;5072909;28;20024;-69
2022/01/05 05:55:29;;;;;;;18.73;11.43;;;;;;;;;;5072602;28;20066;-69
2022/01/05 05:57:55;;;;;;;16.88;10.32;;;;;;;;;;5072359;28;20383;-69
2022/01/05 06:00:21;;;;;;;19.92;10.63;;;;;;;;;;5072108;28;20024;-69
2022/01/05 06:02:47;;;;;;;27.83;10.50;;;;;;;;;;5072530;28;20020;-69
2022/01/05 06:05:12;;;;;;;22.30;9.60;;;;;;;;;;5072318;28;20028;-69
2022/01/05 06:07:38;;;;;;;19.20;10.00;;;;;;;;;;5072336;28;20100;-69
2022/01/05 06:10:04;;;;;;;18.80;9.65;;;;;;;;;;5072299;28;20025;-69
2022/01/05 06:12:29;;;;;;;27.50;10.18;;;;;;;;;;5072213;28;20142;-69
2022/01/05 06:14:55;;;;;;;19.70;10.48;;;;;;;;;;5072119;28;20490;-69
2022/01/05 06:17:20;;;;;;;22.98;11.25;;;;;;;;;;5072233;28;20562;-69
2022/01/05 06:19:46;;;;;;;23.48;11.90;;;;;;;;;;5072254;28;20024;-69
2022/01/05 06:22:11;;;;;;;17.73;10.77;;;;;;;;;;5071989;28;20107;-69
2022/01/05 06:24:39;;;;;;;18.90;10.13;;;;;;;;;;5071858;28;20051;-69
2022/01/05 06:27:05;;;;;;;21.13;10.63;;;;;;;;;;5072039;28;20095;-69
2022/01/05 06:29:30;;;;;;;18.77;10.70;;;;;;;;;;5071809;28;20024;-69
2022/01/05 06:31:56;;;;;;;25.90;13.63;;;;;;;;;;5071793;28;20074;-70
2022/01/05 06:34:21;;;;;;;35.35;19.15;;;;;;;;;;5071885;28;20108;-69
2022/01/05 06:36:47;;;;;;;30.20;14.98;;;;;;;;;;5071752;28;20039;-69
2022/01/05 06:39:12;;;;;;;24.83;13.18;;;;;;;;;;5071481;28;20108;-69
2022/01/05 06:41:38;;;;;;;28.85;13.35;;;;;;;;;;5070664;28;20499;-69
2022/01/05 06:44:03;;;;;;;21.27;12.20;;;;;;;;;;5071573;28;20030;-70
2022/01/05 06:46:29;;;;;;;32.63;13.60;;;;;;;;;;5071524;28;20115;-69
2022/01/05 06:48:54;;;;;;;21.70;12.15;;;;;;;;;;5071600;28;20293;-69
2022/01/05 06:51:20;;;;;;;17.33;11.48;;;;;;;;;;5053556;28;20020;-69
2022/01/05 06:53:45;;;;;;;20.00;11.40;;;;;;;;;;5071607;28;20020;-69
2022/01/05 06:56:10;;;;;;;19.73;10.65;;;;;;;;;;5071386;28;20056;-69
2022/01/05 06:58:36;;;;;;;18.63;10.18;;;;;;;;;;5071241;28;20107;-69
2022/01/05 07:01:01;;;;;;;18.45;9.85;;;;;;;;;;5071234;28;20063;-69
2022/01/05 07:03:27;;;;;;;19.63;10.88;;;;;;;;;;5071564;28;20107;-69
2022/01/05 07:05:52;;;;;;;19.45;10.80;;;;;;;;;;5071187;28;20041;-69
2022/01/05 07:08:19;;;;;;;15.90;10.07;;;;;;;;;;5071342;28;20083;-69
2022/01/05 07:10:45;;;;;;;17.50;9.25;;;;;;;;;;5070838;28;20017;-70
2022/01/05 07:13:10;;;;;;;20.20;9.82;;;;;;;;;;5070978;28;20107;-69
2022/01/05 07:15:35;;;;;;;17.50;9.60;;;;;;;;;;5071050;28;20028;-69
2022/01/05 07:18:01;;;;;;;17.38;10.00;;;;;;;;;;5071017;28;20067;-70
2022/01/05 07:20:26;;;;;;;22.25;10.98;;;;;;;;;;5071089;28;20054;-69
2022/01/05 07:22:52;;;;;;;19.25;10.00;;;;;;;;;;5070656;28;20029;-69
2022/01/05 07:25:17;;;;;;;21.48;10.35;;;;;;;;;;5070813;28;20028;-69
2022/01/05 07:27:43;;;;;;;22.83;10.38;;;;;;;;;;5070795;28;20020;-70
2022/01/05 07:30:09;;;;;;;19.77;10.00;;;;;;;;;;5070656;28;20031;-69
2022/01/05 07:32:36;;;;;;;20.80;10.15;;;;;;;;;;5070841;28;20385;-69
2022/01/05 07:35:02;;;;;;;20.60;10.82;;;;;;;;;;5070465;28;20031;-70
2022/01/05 07:37:28;;;;;;;18.52;10.77;;;;;;;;;;5070601;28;20033;-69
2022/01/05 07:39:53;;;;;;;19.17;10.23;;;;;;;;;;5052577;28;20025;-69
2022/01/05 07:42:19;;;;;;;19.85;11.00;;;;;;;;;;5070399;28;20056;-69
2022/01/05 07:44:44;;;;;;;21.55;11.35;;;;;;;;;;5070344;28;20612;-69
2022/01/05 07:47:11;;;;;;;22.23;11.45;;;;;;;;;;5070451;28;20496;-69
2022/01/05 07:49:38;;;;;;;23.95;11.32;;;;;;;;;;5070605;28;20025;-69
2022/01/05 07:52:07;;;;;;;18.67;10.35;;;;;;;;;;5069960;28;20103;-70
2022/01/05 07:54:33;;;;;;;17.95;10.82;;;;;;;;;;5070401;28;20166;-69
2022/01/05 07:56:59;;;;;;;19.95;10.98;;;;;;;;;;5070799;28;20480;-70
2022/01/05 07:59:24;;;;;;;25.05;12.32;;;;;;;;;;5070022;28;20025;-69
2022/01/05 08:01:50;;;;;;;22.67;12.57;;;;;;;;;;5070071;28;20070;-69
2022/01/05 08:04:16;;;;;;;20.27;11.40;;;;;;;;;;5070135;28;20288;-69
2022/01/05 08:06:42;;;;;;;22.52;11.95;;;;;;;;;;5070243;28;20107;-69
2022/01/05 08:09:08;;;;;;;20.90;11.15;;;;;;;;;;5070257;28;20151;-69
2022/01/05 08:11:33;;;;;;;23.77;11.82;;;;;;;;;;5069827;28;20103;-69
2022/01/05 08:13:58;;;;;;;25.75;11.48;;;;;;;;;;5070064;28;20464;-69
2022/01/05 08:16:24;;;;;;;25.75;11.68;;;;;;;;;;5070342;28;20476;-69
2022/01/05 08:18:49;;;;;;;26.00;11.98;;;;;;;;;;5070072;28;20036;-70
2022/01/05 08:21:17;;;;;;;28.15;11.75;;;;;;;;;;5069857;28;20017;-70
2022/01/05 08:23:43;;;;;;;29.40;12.32;;;;;;;;;;5069853;28;20046;-70
2022/01/05 08:26:08;;;;;;;26.33;11.45;;;;;;;;;;5069933;28;20028;-70
2022/01/05 08:28:34;;;;;;;23.20;10.27;;;;;;;;;;5069952;28;20020;-72
2022/01/05 08:31:00;;;;;;;22.13;10.43;;;;;;;;;;5069997;28;20025;-69
2022/01/05 08:33:25;;;;;;;24.73;11.15;;;;;;;;;;5070092;28;20035;-69
2022/01/05 08:35:51;;;;;;;28.42;12.57;;;;;;;;;;5069747;28;20438;-70
2022/01/05 08:38:17;;;;;;;26.42;12.23;;;;;;;;;;5069714;28;20381;-69
2022/01/05 08:40:43;;;;;;;26.42;11.35;;;;;;;;;;5070252;28;20041;-69
2022/01/05 08:43:10;;;;;;;22.60;10.45;;;;;;;;;;5069474;28;20173;-69
2022/01/05 08:45:36;;;;;;;20.60;11.35;;;;;;;;;;5069780;28;20086;-69
2022/01/05 08:48:02;;;;;;;21.92;9.75;;;;;;;;;;5069653;28;20029;-70
2022/01/05 08:50:31;;;;;;;21.25;9.40;;;;;;;;;;5069757;28;20032;-69
2022/01/05 08:52:57;;;;;;;18.52;8.82;;;;;;;;;;5069171;28;20028;-70
2022/01/05 08:55:27;;;;;;;14.68;8.40;;;;;;;;;;5069662;28;20060;-69
2022/01/05 08:57:53;;;;;;;17.17;8.15;;;;;;;;;;5069637;28;20025;-69
2022/01/05 09:00:19;;;;;;;14.32;7.03;;;;;;;;;;5069405;28;20028;-69
2022/01/05 09:02:45;;;;;;;13.90;6.50;;;;;;;;;;5069229;28;20230;-70
2022/01/05 09:05:10;;;;;;;9.02;5.88;;;;;;;;;;5073706;28;20476;-72
2022/01/05 09:07:36;;;;;;;8.50;5.43;;;;;;;;;;5073525;28;20028;-70
2022/01/05 09:10:05;;;;;;;9.60;5.55;;;;;;;;;;5073301;28;20376;-69
2022/01/05 09:12:31;;;;;;;11.60;5.80;;;;;;;;;;5073332;28;20032;-69
2022/01/05 09:14:57;;;;;;;11.38;5.60;;;;;;;;;;5073186;28;20039;-69
2022/01/05 09:17:24;;;;;;;12.90;5.82;;;;;;;;;;5073161;28;20032;-70
2022/01/05 09:19:50;;;;;;;12.20;6.13;;;;;;;;;;5073686;28;20035;-70
2022/01/05 09:22:15;;;;;;;14.35;6.18;;;;;;;;;;5073003;28;20103;-70
2022/01/05 09:24:41;;;;;;;12.20;6.10;;;;;;;;;;5072994;28;20028;-70
2022/01/05 09:27:07;;;;;;;15.65;6.53;;;;;;;;;;5073024;28;20457;-70
2022/01/05 09:29:34;;;;;;;12.32;6.22;;;;;;;;;;5072966;28;20020;-69
2022/01/05 09:32:04;;;;;;;14.85;6.18;;;;;;;;;;5054881;28;20431;-70
2022/01/05 09:34:33;;;;;;;11.73;6.50;;;;;;;;;;5072978;28;20468;-69
2022/01/05 09:37:05;;;;;;;11.02;6.35;;;;;;;;;;5072280;28;20071;-69
2022/01/05 09:42:15;;;;;;;22.85;12.07;;;;;;;;;;5072782;28;20059;-69
2022/01/05 09:44:48;;;;;;;15.93;8.25;;;;;;;;;;5072577;28;20029;-70
2022/01/05 09:47:13;;;;;;;11.65;7.18;;;;;;;;;;5072687;28;20039;-70
2022/01/05 09:49:44;;;;;;;13.10;7.50;;;;;;;;;;5072662;28;20028;-71
2022/01/05 09:52:11;;;;;;;15.43;7.88;;;;;;;;;;5072637;28;20029;-69
2022/01/05 09:54:42;;;;;;;19.23;8.07;;;;;;;;;;5072594;28;20059;-69
2022/01/05 09:57:11;;;;;;;18.23;9.20;;;;;;;;;;5072875;28;20029;-69
2022/01/05 09:59:37;;;;;;;19.23;9.35;;;;;;;;;;5072241;28;20120;-69
2022/01/05 10:02:06;;;;;;;26.52;12.50;;;;;;;;;;5072216;28;20112;-69
2022/01/05 10:04:34;;;;;;;26.75;13.00;;;;;;;;;;5072336;28;20396;-69
2022/01/05 10:06:59;;;;;;;25.60;13.70;;;;;;;;;;5072456;28;20467;-71
2022/01/05 10:09:25;;;;;;;26.95;13.45;;;;;;;;;;5072384;28;20515;-71
2022/01/05 10:11:50;;;;;;;31.15;13.88;;;;;;;;;;5072058;28;20408;-69
2022/01/05 10:14:16;;;;;;;27.77;13.68;;;;;;;;;;5071747;28;20063;-72
2022/01/05 10:16:58;;;;;;;23.95;11.50;;;;;;;;;;5072060;28;20492;-69
2022/01/05 10:19:24;;;;;;;23.13;11.38;;;;;;;;;;5072102;28;20079;-69
2022/01/05 10:21:50;;;;;;;20.98;9.88;;;;;;;;;;5071961;28;20028;-73
2022/01/05 10:24:16;;;;;;;17.10;9.10;;;;;;;;;;5071785;28;20031;-69
2022/01/05 10:26:41;;;;;;;18.17;9.07;;;;;;;;;;5071906;28;20024;-70
2022/01/05 10:29:13;;;;;;;21.17;9.77;;;;;;;;;;5071862;28;20027;-69
2022/01/05 10:31:40;;;;;;;24.67;11.32;;;;;;;;;;5071973;28;20502;-69
2022/01/05 10:34:26;;;;;;;23.48;11.18;;;;;;;;;;5071625;28;20024;-70
2022/01/05 10:36:55;;;;;;;21.33;11.52;;;;;;;;;;5071479;28;20044;-69
2022/01/05 10:39:27;;;;;;;22.17;10.25;;;;;;;;;;5071831;28;20020;-69
2022/01/05 10:41:53;;;;;;;17.13;7.82;;;;;;;;;;5071541;28;20029;-70
2022/01/05 10:44:23;;;;;;;15.70;6.70;;;;;;;;;;5071442;28;20384;-69
2022/01/05 10:46:54;;;;;;;13.95;6.50;;;;;;;;;;5071865;28;20040;-72
2022/01/05 10:49:26;;;;;;;11.55;5.57;;;;;;;;;;5071692;28;20028;-69
2022/01/05 10:51:52;;;;;;;16.75;7.00;;;;;;;;;;5071436;28;20056;-70
2022/01/05 10:54:21;;;;;;;14.32;6.93;;;;;;;;;;5071337;28;20105;-69
2022/01/05 10:56:47;;;;;;;15.93;7.82;;;;;;;;;;5071458;28;20024;-70
2022/01/05 10:59:14;;;;;;;18.00;8.00;;;;;;;;;;5071295;28;20012;-70
2022/01/05 11:01:41;;;;;;;15.13;7.47;;;;;;;;;;5071327;28;20028;-69
2022/01/05 11:04:20;;;;;;;12.52;6.57;;;;;;;;;;5071021;28;20028;-69
2022/01/05 11:06:55;;;;;;;12.27;5.72;;;;;;;;;;5071169;28;20034;-69
2022/01/05 11:09:21;;;;;;;10.40;4.47;;;;;;;;;;5071098;28;20476;-69
2022/01/05 11:11:49;;;;;;;8.13;4.18;;;;;;;;;;5071091;28;20028;-70
2022/01/05 11:14:15;;;;;;;10.35;4.40;;;;;;;;;;5070733;28;20021;-70
2022/01/05 11:16:43;;;;;;;9.30;3.88;;;;;;;;;;5071143;28;20421;-70
2022/01/05 11:19:31;;;;;;;7.32;3.50;;;;;;;;;;5070842;28;20078;-69
2022/01/05 11:22:09;;;;;;;6.97;3.50;;;;;;;;;;5071239;28;20357;-69
2022/01/05 11:24:55;;;;;;;6.40;3.20;;;;;;;;;;5070261;28;20025;-69
2022/01/05 11:27:27;;;;;;;8.30;3.65;;;;;;;;;;5069650;28;20079;-70
2022/01/05 11:29:53;;;;;;;5.25;2.90;;;;;;;;;;5070503;28;20025;-69
2022/01/05 11:32:23;;;;;;;4.53;2.50;;;;;;;;;;5070351;28;20507;-69
2022/01/05 11:34:49;;;;;;;7.30;2.70;;;;;;;;;;5070756;28;20033;-70
2022/01/05 11:37:15;;;;;;;6.65;3.10;;;;;;;;;;5070384;28;20048;-69
2022/01/05 11:39:46;;;;;;;7.32;2.60;;;;;;;;;;5070522;28;20085;-69
2022/01/05 11:42:15;;;;;;;5.40;2.67;;;;;;;;;;5070518;28;20056;-70
2022/01/05 11:44:58;;;;;;;4.97;2.50;;;;;;;;;;5070150;28;20488;-69
2022/01/05 11:47:30;;;;;;;11.45;3.15;;;;;;;;;;5070402;28;20557;-69
2022/01/05 11:50:26;;;;;;;10.32;3.30;;;;;;;;;;5070555;28;20040;-69
2022/01/05 11:53:06;;;;;;;9.82;4.13;;;;;;;;;;5070354;28;20520;-69
2022/01/05 11:55:53;;;;;;;6.05;3.50;;;;;;;;;;5070487;28;20021;-69
2022/01/05 11:58:21;;;;;;;6.50;2.53;;;;;;;;;;5070151;28;20023;-69
2022/01/05 12:01:07;;;;;;;7.00;2.60;;;;;;;;;;5070473;28;20039;-69
2022/01/05 12:04:06;;;;;;;8.82;4.70;;;;;;;;;;5070020;28;20025;-69
2022/01/05 12:06:34;;;;;;;6.72;3.58;;;;;;;;;;5062045;28;20068;-69
2022/01/05 12:09:03;;;;;;;10.65;6.00;;;;;;;;;;5070411;28;20154;-69
2022/01/05 12:11:35;;;;;;;5.35;2.60;;;;;;;;;;5070235;28;20021;-69
2022/01/05 12:14:04;;;;;;;4.70;2.67;;;;;;;;;;5069939;28;20484;-69
2022/01/05 12:16:59;;;;;;;7.15;3.30;;;;;;;;;;5069993;28;20502;-69
2022/01/05 12:19:25;;;;;;;5.82;2.10;;;;;;;;;;5070007;28;20380;-69
2022/01/05 12:21:53;;;;;;;5.47;2.50;;;;;;;;;;5069989;28;20021;-69
2022/01/05 12:24:19;;;;;;;6.93;2.80;;;;;;;;;;5069989;28;20411;-69
2022/01/05 12:27:17;;;;;;;9.45;4.95;;;;;;;;;;5070061;28;20490;-69
2022/01/05 12:29:43;;;;;;;5.57;2.60;;;;;;;;;;5069705;28;20383;-69
2022/01/05 12:32:09;;;;;;;18.98;10.82;;;;;;;;;;5070046;28;20501;-69
2022/01/05 12:34:50;;;;;;;6.25;3.22;;;;;;;;;;5069858;28;20029;-69
2022/01/05 12:37:38;;;;;;;7.63;3.92;;;;;;;;;;5070446;28;20044;-69
2022/01/05 12:40:46;;;;;;;12.50;6.90;;;;;;;;;;5074046;28;20031;-69
2022/01/05 12:43:12;;;;;;;8.27;2.95;;;;;;;;;;5030864;28;20328;-69
2022/01/05 12:46:05;;;;;;;9.38;4.63;;;;;;;;;;5067078;28;20507;-69
2022/01/05 12:48:33;;;;;;;9.80;3.85;;;;;;;;;;5073820;28;20035;-69
2022/01/05 12:51:11;;;;;;;6.30;3.55;;;;;;;;;;5073974;28;20445;-69
2022/01/05 12:53:49;;;;;;;8.05;3.45;;;;;;;;;;5073614;28;20025;-69
2022/01/05 12:56:28;;;;;;;8.45;2.97;;;;;;;;;;5073767;28;20110;-69
2022/01/05 12:58:56;;;;;;;9.48;3.72;;;;;;;;;;5073598;28;20469;-70
2022/01/05 13:01:24;;;;;;;10.63;4.20;;;;;;;;;;5073744;28;20377;-70
2022/01/05 13:03:50;;;;;;;11.68;3.92;;;;;;;;;;5073777;28;20501;-69
2022/01/05 13:06:19;;;;;;;7.15;2.50;;;;;;;;;;5073809;28;20579;-72
2022/01/05 13:08:49;;;;;;;6.07;2.60;;;;;;;;;;5073506;28;20066;-73
2022/01/05 13:11:40;;;;;;;6.45;2.80;;;;;;;;;;5073413;28;20389;-70
2022/01/05 13:14:14;;;;;;;10.43;3.50;;;;;;;;;;5073225;28;20045;-70
2022/01/05 13:16:43;;;;;;;8.95;3.28;;;;;;;;;;5073411;28;20039;-69
2022/01/05 13:19:16;;;;;;;7.38;3.38;;;;;;;;;;5073143;28;20037;-69
2022/01/05 13:21:47;;;;;;;10.30;2.90;;;;;;;;;;5073206;28;20484;-69
2022/01/05 13:24:12;;;;;;;5.00;2.38;;;;;;;;;;5072946;28;20256;-70
2022/01/05 13:26:58;;;;;;;7.47;2.75;;;;;;;;;;5073300;28;20168;-69
2022/01/05 13:29:28;;;;;;;11.30;5.13;;;;;;;;;;5072904;28;20085;-70
2022/01/05 13:31:58;;;;;;;6.10;2.90;;;;;;;;;;5073251;28;20411;-69
2022/01/05 13:34:34;;;;;;;7.13;2.88;;;;;;;;;;5072764;28;20492;-69
2022/01/05 13:37:00;;;;;;;7.85;3.10;;;;;;;;;;5072806;28;20049;-69
2022/01/05 13:39:36;;;;;;;9.95;3.10;;;;;;;;;;5072706;28;20426;-69
2022/01/05 13:42:02;;;;;;;5.60;3.20;;;;;;;;;;5073021;28;20016;-69
2022/01/05 13:44:27;;;;;;;8.35;3.10;;;;;;;;;;5072536;28;20051;-69
2022/01/05 13:46:53;;;;;;;9.98;3.65;;;;;;;;;;5072753;28;20404;-69
2022/01/05 13:49:18;;;;;;;7.97;3.20;;;;;;;;;;5072228;28;20364;-69
2022/01/05 13:52:04;;;;;;;9.40;3.47;;;;;;;;;;5072906;28;20032;-69
2022/01/05 13:54:31;;;;;;;7.50;2.90;;;;;;;;;;5072586;28;20017;-69
2022/01/05 13:56:57;;;;;;;8.15;3.58;;;;;;;;;;5072590;28;20029;-69
2022/01/05 13:59:22;;;;;;;8.95;3.20;;;;;;;;;;5072177;28;20472;-69
2022/01/05 14:01:58;;;;;;;8.63;3.20;;;;;;;;;;5072414;28;20544;-69
2022/01/05 14:04:23;;;;;;;7.68;3.20;;;;;;;;;;5072235;28;20035;-70
2022/01/05 14:06:59;;;;;;;8.52;3.10;;;;;;;;;;5072177;28;20371;-69
2022/01/05 14:09:31;;;;;;;9.75;3.35;;;;;;;;;;5072214;28;20446;-69
2022/01/05 14:11:57;;;;;;;8.32;2.80;;;;;;;;;;5072034;28;20028;-69
2022/01/05 14:14:24;;;;;;;8.02;3.15;;;;;;;;;;5071890;28;20035;-70
2022/01/05 14:16:51;;;;;;;5.10;2.80;;;;;;;;;;5072355;28;20067;-69
2022/01/05 14:19:27;;;;;;;13.27;4.85;;;;;;;;;;5072218;28;20020;-69
2022/01/05 14:22:04;;;;;;;8.73;4.75;;;;;;;;;;5072270;28;20024;-69
2022/01/05 14:24:32;;;;;;;8.93;4.18;;;;;;;;;;5071904;28;20073;-69
2022/01/05 14:26:59;;;;;;;9.80;4.25;;;;;;;;;;5072063;28;20055;-70
2022/01/05 14:29:25;;;;;;;8.13;3.45;;;;;;;;;;5072039;28;20033;-70
2022/01/05 14:32:00;;;;;;;8.57;3.72;;;;;;;;;;5072078;28;20025;-69